Time;durP1;ratioP1;P1;durP2;ratioP2;P2;SDS_P1;SDS_P2;PMS_P1;PMS_P2;Temp;Humidity;BMP_temperature;BMP_pressure;BME280_temperature;BME280_humidity;BME280_pressure;Samples;Min_cycle;Max_cycle;Signal;HPM_P1;HPM_P2
2023/12/24 00:00:28;;;;;;;4.67;1.50;;;10.80;99.90;;;;;;5084308;28;20702;-57
2023/12/24 00:02:57;;;;;;;4.53;1.60;;;10.80;99.90;;;;;;5080371;28;20317;-57
2023/12/24 00:05:28;;;;;;;3.27;1.60;;;10.70;99.90;;;;;;5083570;28;20230;-56
2023/12/24 00:07:57;;;;;;;2.50;1.50;;;10.70;99.90;;;;;;5081776;28;20207;-51
2023/12/24 00:10:25;;;;;;;5.03;1.80;;;10.70;99.90;;;;;;5079063;28;20223;-56
2023/12/24 00:12:54;;;;;;;2.60;2.10;;;10.70;99.90;;;;;;5085988;28;20223;-57
2023/12/24 00:15:23;;;;;;;9.17;2.00;;;10.70;99.90;;;;;;5082046;28;20625;-57
2023/12/24 00:17:51;;;;;;;5.07;1.73;;;10.60;99.90;;;;;;5083771;28;20220;-54
2023/12/24 00:20:19;;;;;;;6.60;1.80;;;10.60;99.90;;;;;;5084110;28;20223;-56
2023/12/24 00:23:04;;;;;;;4.23;2.00;;;10.60;99.90;;;;;;5084719;28;20203;-56
2023/12/24 00:25:33;;;;;;;6.30;2.00;;;10.50;99.90;;;;;;5084881;28;20220;-56
2023/12/24 00:28:02;;;;;;;3.50;1.90;;;10.40;99.90;;;;;;5081048;28;20314;-55
2023/12/24 00:30:31;;;;;;;2.47;1.77;;;10.60;99.90;;;;;;5084264;27;20212;-56
2023/12/24 00:33:00;;;;;;;1.90;1.80;;;10.60;99.90;;;;;;5081651;27;20219;-56
2023/12/24 00:35:31;;;;;;;1.83;1.70;;;10.60;99.90;;;;;;5081283;28;20247;-56
2023/12/24 00:37:59;;;;;;;8.07;1.87;;;10.60;99.90;;;;;;5080699;28;20194;-55
2023/12/24 00:40:27;;;;;;;2.83;1.50;;;10.60;99.90;;;;;;5083523;28;20195;-56
2023/12/24 00:42:56;;;;;;;3.77;1.83;;;10.60;99.90;;;;;;5077902;28;20222;-57
2023/12/24 00:45:25;;;;;;;3.70;1.90;;;10.60;99.90;;;;;;5079776;28;20686;-55
2023/12/24 00:47:53;;;;;;;4.10;2.10;;;10.70;99.90;;;;;;5085915;28;20647;-56
2023/12/24 00:50:22;;;;;;;1.50;1.47;;;10.70;99.90;;;;;;5079241;28;20293;-56
2023/12/24 00:52:50;;;;;;;2.00;1.50;;;10.70;99.90;;;;;;5080584;28;20645;-56
2023/12/24 00:55:19;;;;;;;2.00;1.40;;;10.70;99.90;;;;;;5081194;28;20211;-53
2023/12/24 00:57:47;;;;;;;4.23;1.50;;;10.80;99.90;;;;;;5078002;28;20248;-57
2023/12/24 01:00:16;;;;;;;3.80;1.30;;;10.80;99.90;;;;;;5083266;28;20216;-56
2023/12/24 01:02:47;;;;;;;6.07;1.70;;;10.80;99.90;;;;;;5081401;28;20259;-57
2023/12/24 01:05:16;;;;;;;2.73;1.63;;;10.80;99.90;;;;;;5084268;28;20278;-57
2023/12/24 01:07:44;;;;;;;4.47;1.47;;;10.80;99.90;;;;;;5081071;28;20208;-55
2023/12/24 01:10:12;;;;;;;4.57;1.30;;;10.80;99.90;;;;;;5082318;28;20217;-56
2023/12/24 01:12:42;;;;;;;1.50;1.40;;;10.80;99.90;;;;;;5081750;28;20226;-56
2023/12/24 01:15:11;;;;;;;3.23;1.23;;;10.80;99.90;;;;;;5083529;28;20254;-56
2023/12/24 01:17:39;;;;;;;5.83;1.67;;;10.80;99.90;;;;;;5082643;28;20648;-57
2023/12/24 01:20:15;;;;;;;3.50;1.40;;;10.80;99.90;;;;;;5080500;28;20216;-56
2023/12/24 01:22:43;;;;;;;2.33;1.33;;;10.80;99.90;;;;;;5081882;28;20180;-56
2023/12/24 01:25:12;;;;;;;2.73;1.30;;;10.70;99.90;;;;;;5083787;28;20277;-56
2023/12/24 01:27:40;;;;;;;3.27;1.30;;;10.60;99.90;;;;;;5079147;28;20726;-56
2023/12/24 01:30:10;;;;;;;1.83;1.30;;;10.50;99.90;;;;;;5082544;28;20743;-56
2023/12/24 01:32:38;;;;;;;3.70;1.60;;;10.50;99.90;;;;;;5087125;28;20278;-56
2023/12/24 01:35:08;;;;;;;2.93;1.50;;;10.40;99.90;;;;;;5087219;28;20230;-55
2023/12/24 01:37:37;;;;;;;2.97;1.70;;;10.40;99.90;;;;;;5086325;28;20192;-54
2023/12/24 01:40:07;;;;;;;3.90;1.90;;;10.40;99.90;;;;;;5087593;28;20567;-56
2023/12/24 01:42:35;;;;;;;4.00;1.70;;;10.40;99.90;;;;;;5086646;28;20743;-56
2023/12/24 01:45:03;;;;;;;2.97;1.80;;;10.40;99.90;;;;;;5084862;28;20233;-56
2023/12/24 01:47:32;;;;;;;5.03;1.50;;;10.40;99.90;;;;;;5085262;28;20231;-56
2023/12/24 01:50:00;;;;;;;1.80;1.37;;;10.40;99.90;;;;;;5086120;28;20234;-57
2023/12/24 01:52:29;;;;;;;2.77;1.70;;;10.50;99.90;;;;;;5081462;28;20255;-56
2023/12/24 01:54:58;;;;;;;3.93;1.43;;;10.50;99.90;;;;;;5088328;28;20231;-56
2023/12/24 01:57:27;;;;;;;1.40;1.30;;;10.50;99.90;;;;;;5084706;28;20221;-56
2023/12/24 01:59:56;;;;;;;5.63;1.40;;;10.50;99.90;;;;;;5088362;28;22143;-56
2023/12/24 02:02:28;;;;;;;3.67;1.50;;;10.50;99.90;;;;;;5085924;28;20223;-56
2023/12/24 02:04:57;;;;;;;2.90;1.20;;;10.40;99.90;;;;;;5083288;28;20236;-51
2023/12/24 02:07:27;;;;;;;3.87;1.30;;;10.40;99.90;;;;;;5088904;28;20188;-56
2023/12/24 02:09:55;;;;;;;6.53;1.50;;;10.30;99.90;;;;;;5086395;28;20226;-56
2023/12/24 02:12:25;;;;;;;3.27;1.30;;;10.30;99.90;;;;;;5088408;28;20218;-57
2023/12/24 02:14:53;;;;;;;1.80;1.17;;;10.30;99.90;;;;;;5086661;28;20219;-56
2023/12/24 02:17:24;;;;;;;1.30;1.20;;;10.30;99.90;;;;;;5085013;28;20293;-57
2023/12/24 02:19:53;;;;;;;1.30;1.30;;;10.20;99.90;;;;;;5084634;28;20221;-58
2023/12/24 02:22:23;;;;;;;2.50;1.30;;;10.20;99.90;;;;;;5082817;28;20677;-57
2023/12/24 02:24:51;;;;;;;1.07;1.07;;;10.20;99.90;;;;;;5083466;28;20274;-58
2023/12/24 02:27:27;;;;;;;2.23;1.73;;;10.20;99.90;;;;;;5084090;28;20231;-57
2023/12/24 02:30:03;;;;;;;1.70;1.30;;;10.20;99.90;;;;;;5086591;28;20242;-58
2023/12/24 02:32:34;;;;;;;4.43;1.40;;;10.20;99.90;;;;;;5085354;28;20223;-58
2023/12/24 02:35:04;;;;;;;1.80;1.20;;;10.20;99.90;;;;;;5087923;28;20622;-58
2023/12/24 02:37:33;;;;;;;1.10;1.10;;;10.20;99.90;;;;;;5083789;28;20180;-58
2023/12/24 02:40:03;;;;;;;1.57;1.20;;;10.20;99.90;;;;;;5080894;28;20215;-58
2023/12/24 02:42:31;;;;;;;4.20;1.40;;;10.20;99.90;;;;;;5085491;28;20222;-57
2023/12/24 02:44:59;;;;;;;2.60;1.63;;;10.10;99.90;;;;;;5086929;28;20227;-58
2023/12/24 02:47:27;;;;;;;2.83;1.33;;;10.10;99.90;;;;;;5083903;28;20227;-57
2023/12/24 02:49:56;;;;;;;2.77;1.40;;;10.10;99.90;;;;;;5084055;28;20236;-58
2023/12/24 02:52:24;;;;;;;2.03;1.30;;;10.10;99.90;;;;;;5082799;28;20257;-57
2023/12/24 02:54:54;;;;;;;1.77;1.30;;;10.10;99.90;;;;;;5082542;28;20234;-57
2023/12/24 02:57:23;;;;;;;3.43;1.70;;;10.10;99.90;;;;;;5083674;28;20218;-57
2023/12/24 02:59:51;;;;;;;4.10;1.20;;;10.10;99.90;;;;;;5085010;28;20215;-58
2023/12/24 03:02:20;;;;;;;1.50;1.40;;;10.10;99.90;;;;;;5082823;28;20597;-57
2023/12/24 03:04:48;;;;;;;1.80;1.27;;;10.20;99.90;;;;;;5082925;28;20199;-58
2023/12/24 03:07:16;;;;;;;1.53;1.30;;;10.20;99.90;;;;;;5080798;28;20582;-58
2023/12/24 03:09:44;;;;;;;2.27;1.27;;;10.10;99.90;;;;;;5083540;28;20227;-57
2023/12/24 03:12:14;;;;;;;1.10;1.10;;;10.10;99.90;;;;;;5078768;28;20216;-57
2023/12/24 03:14:42;;;;;;;1.43;1.33;;;10.10;99.90;;;;;;5082092;28;20246;-57
2023/12/24 03:17:10;;;;;;;1.23;1.17;;;10.10;99.90;;;;;;5079281;28;20192;-57
2023/12/24 03:19:38;;;;;;;2.70;1.37;;;10.20;99.90;;;;;;5084575;28;20191;-56
2023/12/24 03:22:10;;;;;;;3.33;1.20;;;10.20;99.90;;;;;;5084231;28;20264;-57
2023/12/24 03:24:38;;;;;;;5.50;1.40;;;10.20;99.90;;;;;;5086423;28;20616;-57
2023/12/24 03:27:06;;;;;;;5.00;1.43;;;10.20;99.90;;;;;;5085305;28;20215;-57
2023/12/24 03:29:36;;;;;;;1.83;1.10;;;10.20;99.90;;;;;;5088752;28;20242;-56
2023/12/24 03:32:05;;;;;;;4.13;1.23;;;10.20;99.90;;;;;;5085085;28;20215;-57
2023/12/24 03:34:33;;;;;;;3.07;1.37;;;10.20;99.90;;;;;;5083836;28;20203;-57
2023/12/24 03:37:01;;;;;;;3.23;1.27;;;10.20;99.90;;;;;;5080787;28;20224;-56
2023/12/24 03:39:30;;;;;;;2.57;1.20;;;10.20;99.90;;;;;;5084251;28;20223;-57
2023/12/24 03:41:58;;;;;;;1.50;1.40;;;10.20;99.90;;;;;;5082883;28;20219;-56
2023/12/24 03:44:26;;;;;;;2.70;1.33;;;10.20;99.90;;;;;;5085172;28;20235;-56
2023/12/24 03:46:56;;;;;;;2.73;1.40;;;10.20;99.90;;;;;;5084353;28;20571;-57
2023/12/24 03:49:24;;;;;;;2.80;1.50;;;10.20;99.90;;;;;;5082892;28;20250;-56
2023/12/24 03:51:52;;;;;;;2.80;1.73;;;10.20;99.90;;;;;;5083215;28;20246;-56
2023/12/24 03:54:21;;;;;;;4.10;1.90;;;10.20;99.90;;;;;;5080632;28;20219;-57
2023/12/24 03:56:50;;;;;;;4.23;2.00;;;10.20;99.90;;;;;;5085515;28;20223;-57
2023/12/24 03:59:18;;;;;;;8.20;2.40;;;10.20;99.90;;;;;;5085061;28;20231;-57
2023/12/24 04:01:46;;;;;;;7.80;2.30;;;10.30;99.90;;;;;;5081736;28;20581;-57
2023/12/24 04:04:17;;;;;;;8.93;2.13;;;10.30;99.90;;;;;;5080759;28;20282;-58
2023/12/24 04:06:47;;;;;;;8.93;2.10;;;10.30;99.90;;;;;;5077139;28;20356;-58
2023/12/24 04:09:15;;;;;;;9.07;2.53;;;10.30;99.90;;;;;;5077397;28;20566;-58
2023/12/24 04:11:43;;;;;;;6.77;2.10;;;10.30;99.90;;;;;;5080359;28;20223;-57
2023/12/24 04:14:11;;;;;;;14.03;2.80;;;10.30;99.90;;;;;;5084813;28;20199;-58
2023/12/24 04:16:39;;;;;;;10.23;2.40;;;10.30;99.90;;;;;;5083700;28;20203;-57
2023/12/24 04:19:08;;;;;;;9.10;2.17;;;10.30;99.90;;;;;;5085690;28;20694;-57
2023/12/24 04:21:37;;;;;;;14.53;2.33;;;10.30;99.90;;;;;;5080550;28;20220;-58
2023/12/24 04:24:06;;;;;;;15.43;2.97;;;10.30;99.90;;;;;;5083840;28;20224;-58
2023/12/24 04:26:36;;;;;;;14.17;3.20;;;10.30;99.90;;;;;;5084075;28;20223;-57
2023/12/24 04:29:05;;;;;;;12.57;3.27;;;10.30;99.90;;;;;;5082116;28;20222;-57
2023/12/24 04:31:33;;;;;;;8.27;2.30;;;10.30;99.90;;;;;;5083320;28;20199;-57
2023/12/24 04:34:01;;;;;;;9.40;2.93;;;10.30;99.90;;;;;;5080328;28;20542;-57
2023/12/24 04:36:30;;;;;;;12.33;2.60;;;10.40;99.90;;;;;;5081166;28;20302;-57
2023/12/24 04:38:59;;;;;;;10.23;2.53;;;10.30;99.90;;;;;;5079686;28;20224;-57
2023/12/24 04:41:28;;;;;;;16.77;3.13;;;10.30;99.90;;;;;;5083381;28;20547;-57
2023/12/24 04:43:57;;;;;;;14.37;2.90;;;10.40;99.90;;;;;;5085788;28;20195;-57
2023/12/24 04:46:25;;;;;;;10.00;2.87;;;10.40;99.90;;;;;;5079442;28;20234;-57
2023/12/24 04:48:53;;;;;;;9.63;2.70;;;10.40;99.90;;;;;;5083415;28;20232;-57
2023/12/24 04:51:23;;;;;;;9.07;2.50;;;10.40;99.90;;;;;;5079317;28;20701;-57
2023/12/24 04:53:52;;;;;;;15.43;3.10;;;10.40;99.90;;;;;;5080434;28;20219;-58
2023/12/24 04:56:22;;;;;;;11.63;2.67;;;10.40;99.90;;;;;;5082620;28;20223;-57
2023/12/24 04:58:51;;;;;;;15.20;2.70;;;10.40;99.90;;;;;;5080920;28;20195;-57
2023/12/24 05:01:19;;;;;;;7.37;2.63;;;10.40;99.90;;;;;;5074807;28;20222;-57
2023/12/24 05:03:47;;;;;;;12.43;2.80;;;10.40;99.90;;;;;;5082177;28;20315;-56
2023/12/24 05:06:16;;;;;;;8.07;2.50;;;10.40;99.90;;;;;;5081163;28;20658;-57
2023/12/24 05:08:44;;;;;;;10.27;2.33;;;10.40;99.90;;;;;;5081177;28;20215;-57
2023/12/24 05:11:12;;;;;;;9.00;2.33;;;10.40;99.90;;;;;;5078120;28;20302;-57
2023/12/24 05:13:42;;;;;;;10.80;2.50;;;10.40;99.90;;;;;;5083624;28;20195;-56
2023/12/24 05:16:10;;;;;;;10.33;2.20;;;10.40;99.90;;;;;;5081070;28;20223;-57
2023/12/24 05:18:38;;;;;;;7.73;2.30;;;10.40;99.90;;;;;;5081839;28;20690;-57
2023/12/24 05:21:07;;;;;;;5.03;2.07;;;10.40;99.90;;;;;;5081085;28;20557;-57
2023/12/24 05:23:35;;;;;;;5.67;1.67;;;10.40;99.90;;;;;;5080325;28;20318;-58
2023/12/24 05:26:04;;;;;;;4.73;1.80;;;10.40;99.90;;;;;;5082841;28;20618;-57
2023/12/24 05:28:32;;;;;;;2.07;1.87;;;10.40;99.90;;;;;;5082531;28;20198;-57
2023/12/24 05:31:02;;;;;;;3.50;1.63;;;10.40;99.90;;;;;;5083180;28;20220;-57
2023/12/24 05:33:30;;;;;;;4.03;1.70;;;10.40;99.90;;;;;;5079161;28;20212;-57
2023/12/24 05:35:58;;;;;;;5.30;1.90;;;10.50;99.90;;;;;;5082340;28;20220;-57
2023/12/24 05:38:26;;;;;;;3.90;1.40;;;10.50;99.90;;;;;;5082475;28;20231;-58
2023/12/24 05:40:55;;;;;;;4.63;1.93;;;10.40;99.90;;;;;;5080070;28;20704;-57
2023/12/24 05:43:23;;;;;;;3.23;1.40;;;10.40;99.90;;;;;;5082556;28;20212;-57
2023/12/24 05:45:51;;;;;;;3.00;1.43;;;10.50;99.90;;;;;;5079945;28;20242;-57
2023/12/24 05:48:21;;;;;;;2.50;1.60;;;10.50;99.90;;;;;;5081165;28;20229;-58
2023/12/24 05:50:49;;;;;;;2.63;1.43;;;10.40;99.90;;;;;;5080528;28;20310;-57
2023/12/24 05:53:17;;;;;;;6.50;1.60;;;10.40;99.90;;;;;;5081040;28;20694;-58
2023/12/24 05:55:44;;;;;;;6.93;1.60;;;10.40;99.90;;;;;;5081545;28;20206;-58
2023/12/24 05:58:12;;;;;;;1.90;1.40;;;10.40;99.90;;;;;;5078606;28;20225;-58
2023/12/24 06:00:41;;;;;;;3.30;1.47;;;10.40;99.90;;;;;;5081025;28;20230;-57
2023/12/24 06:03:09;;;;;;;4.83;1.60;;;10.40;99.90;;;;;;5079241;28;20242;-57
2023/12/24 06:05:39;;;;;;;4.73;1.30;;;10.50;99.90;;;;;;5084516;28;20236;-57
2023/12/24 06:08:07;;;;;;;1.93;1.43;;;10.40;99.90;;;;;;5084196;28;20191;-58
2023/12/24 06:10:36;;;;;;;5.47;1.70;;;10.40;99.90;;;;;;5081084;28;20218;-57
2023/12/24 06:13:04;;;;;;;2.30;1.30;;;10.40;99.90;;;;;;5080271;28;20224;-57
2023/12/24 06:15:32;;;;;;;4.57;1.50;;;10.40;99.90;;;;;;5079982;28;20231;-57
2023/12/24 06:18:01;;;;;;;1.90;1.60;;;10.40;99.90;;;;;;5084331;28;20223;-57
2023/12/24 06:20:31;;;;;;;3.53;1.70;;;10.40;99.90;;;;;;5087819;28;20227;-57
2023/12/24 06:23:02;;;;;;;2.37;1.60;;;10.40;99.90;;;;;;5085997;28;20188;-57
2023/12/24 06:25:30;;;;;;;2.27;1.50;;;10.50;99.90;;;;;;5082103;28;20225;-58
2023/12/24 06:27:59;;;;;;;2.40;1.77;;;10.50;99.90;;;;;;5086974;28;20226;-58
2023/12/24 06:30:27;;;;;;;6.27;1.97;;;10.50;99.90;;;;;;5086444;27;20227;-58
2023/12/24 06:32:55;;;;;;;4.57;1.70;;;10.50;99.90;;;;;;5085178;27;20223;-58
2023/12/24 06:35:24;;;;;;;7.40;1.77;;;10.50;99.90;;;;;;5079724;28;20326;-58
2023/12/24 06:37:52;;;;;;;5.13;2.23;;;10.50;99.90;;;;;;5085696;28;20191;-57
2023/12/24 06:40:22;;;;;;;5.73;1.77;;;10.50;99.90;;;;;;5085739;28;20223;-57
2023/12/24 06:42:50;;;;;;;4.03;2.00;;;10.50;99.90;;;;;;5083556;28;20236;-58
2023/12/24 06:45:19;;;;;;;4.43;1.87;;;10.50;99.90;;;;;;5084135;28;20211;-58
2023/12/24 06:47:47;;;;;;;3.20;1.80;;;10.50;99.90;;;;;;5083784;27;20231;-59
2023/12/24 06:50:16;;;;;;;6.97;1.93;;;10.50;99.90;;;;;;5085737;28;20218;-58
2023/12/24 06:52:44;;;;;;;8.33;1.97;;;10.50;99.90;;;;;;5085276;28;20642;-58
2023/12/24 06:55:13;;;;;;;3.10;1.87;;;10.50;99.90;;;;;;5081637;28;20224;-57
2023/12/24 06:57:42;;;;;;;8.00;2.00;;;10.50;99.90;;;;;;5081560;28;20356;-61
2023/12/24 07:00:12;;;;;;;7.43;2.17;;;10.50;99.90;;;;;;5080615;28;21398;-60
2023/12/24 07:02:43;;;;;;;5.10;2.00;;;10.60;99.90;;;;;;5078529;28;20590;-61
2023/12/24 07:05:11;;;;;;;7.17;2.23;;;10.50;99.90;;;;;;5083438;28;20919;-60
2023/12/24 07:07:39;;;;;;;4.83;2.00;;;10.50;99.90;;;;;;5082332;28;20194;-61
2023/12/24 07:10:08;;;;;;;8.13;2.13;;;10.60;99.90;;;;;;5082388;28;20246;-60
2023/12/24 07:12:39;;;;;;;9.10;2.10;;;10.60;99.90;;;;;;5083722;28;20230;-59
2023/12/24 07:15:10;;;;;;;4.80;2.20;;;10.60;99.90;;;;;;5081031;28;20223;-61
2023/12/24 07:17:38;;;;;;;7.07;1.97;;;10.60;99.90;;;;;;5084420;28;20215;-61
2023/12/24 07:20:08;;;;;;;6.60;2.07;;;10.60;99.90;;;;;;5081024;28;20272;-61
2023/12/24 07:22:37;;;;;;;6.57;1.90;;;10.60;99.90;;;;;;5083311;28;20191;-61
2023/12/24 07:25:06;;;;;;;8.70;2.10;;;10.60;99.90;;;;;;5080643;28;20215;-61
2023/12/24 07:27:34;;;;;;;8.17;2.40;;;10.60;99.90;;;;;;5083256;28;20227;-61
2023/12/24 07:30:03;;;;;;;4.77;1.90;;;10.70;99.90;;;;;;5087000;28;20212;-58
2023/12/24 07:32:33;;;;;;;4.47;2.00;;;10.70;99.90;;;;;;5083271;27;20231;-61
2023/12/24 07:35:01;;;;;;;5.57;2.00;;;10.70;99.90;;;;;;5081426;28;20196;-59
2023/12/24 07:37:29;;;;;;;7.23;1.87;;;10.70;99.90;;;;;;5085811;28;20578;-59
2023/12/24 07:39:58;;;;;;;4.20;2.03;;;10.70;99.90;;;;;;5082768;28;20229;-59
2023/12/24 07:42:26;;;;;;;4.03;1.73;;;10.70;99.90;;;;;;5080825;28;20245;-59
2023/12/24 07:44:55;;;;;;;2.67;1.60;;;10.70;99.90;;;;;;5081812;27;20251;-60
2023/12/24 07:47:23;;;;;;;3.33;2.00;;;10.80;99.90;;;;;;5081342;28;20258;-60
2023/12/24 07:49:52;;;;;;;2.00;1.73;;;10.80;99.90;;;;;;5081323;28;20747;-60
2023/12/24 07:52:21;;;;;;;6.20;1.97;;;10.40;99.90;;;;;;5083222;28;20215;-59
2023/12/24 07:54:49;;;;;;;4.63;2.00;;;10.80;99.90;;;;;;5082796;28;20680;-60
2023/12/24 07:57:17;;;;;;;3.63;1.70;;;10.80;99.90;;;;;;5085615;28;20211;-61
2023/12/24 07:59:46;;;;;;;4.73;1.57;;;10.80;99.90;;;;;;5087732;28;20700;-60
2023/12/24 08:02:14;;;;;;;1.70;1.60;;;10.80;99.90;;;;;;5077671;28;20223;-59
2023/12/24 08:04:44;;;;;;;3.57;1.87;;;10.80;99.90;;;;;;5079885;28;20202;-60
2023/12/24 08:07:14;;;;;;;5.80;1.90;;;10.80;99.90;;;;;;5095531;28;20223;-60
2023/12/24 08:09:42;;;;;;;7.57;1.90;;;10.80;99.90;;;;;;5080854;28;20216;-60
2023/12/24 08:12:11;;;;;;;4.80;2.07;;;10.80;99.90;;;;;;5083527;28;20227;-59
2023/12/24 08:14:39;;;;;;;2.57;1.80;;;10.90;99.90;;;;;;5079873;28;20302;-59
2023/12/24 08:17:08;;;;;;;4.07;1.97;;;10.90;99.90;;;;;;5088196;28;20244;-60
2023/12/24 08:19:36;;;;;;;3.37;2.00;;;10.90;99.90;;;;;;5082897;28;20214;-60
2023/12/24 08:22:05;;;;;;;6.10;2.20;;;10.90;99.90;;;;;;5081301;28;20231;-59
2023/12/24 08:24:34;;;;;;;4.63;2.27;;;10.90;99.90;;;;;;5084301;28;20220;-60
2023/12/24 08:27:02;;;;;;;4.13;2.00;;;10.90;99.90;;;;;;5081664;28;20310;-60
2023/12/24 08:29:34;;;;;;;5.03;1.70;;;10.90;99.90;;;;;;5084215;28;20231;-59
2023/12/24 08:32:02;;;;;;;4.60;2.00;;;10.90;99.90;;;;;;5080237;28;20995;-59
2023/12/24 08:34:31;;;;;;;2.43;2.10;;;10.90;99.90;;;;;;5083091;28;20230;-60
2023/12/24 08:37:01;;;;;;;3.37;2.50;;;11.00;99.90;;;;;;5085228;28;20224;-59
2023/12/24 08:39:29;;;;;;;4.30;2.53;;;11.00;99.90;;;;;;5082705;28;20223;-59
2023/12/24 08:41:59;;;;;;;4.87;2.10;;;11.00;99.90;;;;;;5078094;28;20689;-60
2023/12/24 08:44:28;;;;;;;6.73;2.53;;;11.00;99.90;;;;;;5082840;28;20227;-59
2023/12/24 08:46:57;;;;;;;6.53;2.73;;;11.00;99.90;;;;;;5083092;28;20183;-54
2023/12/24 08:49:25;;;;;;;8.40;2.67;;;11.00;99.90;;;;;;5082241;28;20316;-59
2023/12/24 08:51:53;;;;;;;3.83;2.80;;;11.00;99.90;;;;;;5081807;28;20588;-59
2023/12/24 08:54:23;;;;;;;7.07;2.50;;;11.00;99.90;;;;;;5083258;28;20208;-59
2023/12/24 08:56:51;;;;;;;5.33;2.67;;;11.00;99.90;;;;;;5081784;28;20573;-59
2023/12/24 08:59:21;;;;;;;3.47;2.50;;;11.10;99.90;;;;;;5078580;28;20312;-59
2023/12/24 09:01:49;;;;;;;4.57;2.20;;;11.10;99.90;;;;;;5081499;28;20823;-59
2023/12/24 09:04:17;;;;;;;8.17;2.60;;;11.10;99.90;;;;;;5076294;28;20222;-59
2023/12/24 09:06:46;;;;;;;4.03;2.47;;;11.10;99.90;;;;;;5078933;28;20234;-59
2023/12/24 09:09:14;;;;;;;8.17;2.70;;;11.20;99.90;;;;;;5080605;28;20606;-61
2023/12/24 09:11:43;;;;;;;5.37;2.60;;;11.20;99.90;;;;;;5082477;28;20219;-62
2023/12/24 09:14:11;;;;;;;6.17;2.70;;;11.20;99.90;;;;;;5081589;28;20184;-60
2023/12/24 09:16:41;;;;;;;2.67;2.47;;;11.20;99.90;;;;;;5078049;28;20287;-60
2023/12/24 09:19:09;;;;;;;5.07;2.60;;;11.20;99.90;;;;;;5080793;28;20296;-61
2023/12/24 09:21:38;;;;;;;4.93;2.57;;;11.20;99.90;;;;;;5079421;28;20600;-61
2023/12/24 09:24:06;;;;;;;3.10;2.80;;;11.20;99.90;;;;;;5082545;28;20235;-61
2023/12/24 09:26:35;;;;;;;4.43;2.70;;;11.20;99.90;;;;;;5080461;28;20745;-61
2023/12/24 09:29:06;;;;;;;7.40;2.40;;;11.20;99.90;;;;;;5081538;28;21696;-60
2023/12/24 09:31:34;;;;;;;4.60;2.47;;;11.20;99.90;;;;;;5080826;28;20253;-61
2023/12/24 09:34:04;;;;;;;6.13;2.40;;;11.30;99.90;;;;;;5080938;28;20689;-61
2023/12/24 09:36:32;;;;;;;3.97;2.50;;;11.30;99.90;;;;;;5073967;28;20215;-61
2023/12/24 09:39:01;;;;;;;4.43;2.30;;;11.30;99.90;;;;;;5078613;28;20216;-61
2023/12/24 09:41:29;;;;;;;3.93;2.03;;;11.30;99.90;;;;;;5081116;28;20215;-61
2023/12/24 09:43:57;;;;;;;4.03;2.10;;;11.30;99.90;;;;;;5077854;28;20211;-59
2023/12/24 09:46:25;;;;;;;3.83;1.93;;;11.30;99.90;;;;;;5078730;28;20196;-61
2023/12/24 09:48:54;;;;;;;6.83;2.23;;;11.40;99.90;;;;;;5080541;28;20224;-61
2023/12/24 09:51:25;;;;;;;6.27;2.00;;;11.40;99.90;;;;;;5079149;28;20309;-61
2023/12/24 09:53:55;;;;;;;4.90;2.00;;;11.40;99.90;;;;;;5082889;28;20230;-61
2023/12/24 09:56:23;;;;;;;5.90;2.00;;;11.40;99.90;;;;;;5077048;28;20239;-60
2023/12/24 09:58:52;;;;;;;3.57;2.03;;;11.40;99.90;;;;;;5087135;28;20210;-61
2023/12/24 10:01:21;;;;;;;2.47;1.80;;;11.40;99.90;;;;;;5083562;28;20693;-61
2023/12/24 10:03:49;;;;;;;4.17;1.90;;;11.50;99.90;;;;;;5082812;28;20227;-61
2023/12/24 10:06:17;;;;;;;1.90;1.80;;;11.50;99.90;;;;;;5081054;28;20211;-60
2023/12/24 10:08:54;;;;;;;3.07;1.90;;;11.50;99.90;;;;;;5074924;28;20229;-61
2023/12/24 10:11:23;;;;;;;3.53;1.93;;;11.50;99.90;;;;;;5084765;28;20923;-60
2023/12/24 10:13:59;;;;;;;3.97;1.80;;;11.60;99.90;;;;;;5085438;28;20215;-61
2023/12/24 10:16:28;;;;;;;2.67;1.50;;;11.60;99.90;;;;;;5078404;28;20272;-61
2023/12/24 10:18:58;;;;;;;2.30;1.70;;;11.60;99.90;;;;;;5083397;28;20219;-60
2023/12/24 10:21:27;;;;;;;4.53;1.90;;;11.60;99.90;;;;;;5083959;28;20246;-61
2023/12/24 10:24:04;;;;;;;2.57;2.37;;;11.70;99.90;;;;;;5080931;28;20270;-61
2023/12/24 10:26:32;;;;;;;6.23;2.07;;;11.70;99.90;;;;;;5084333;28;20242;-61
2023/12/24 10:29:00;;;;;;;2.03;1.53;;;11.70;99.90;;;;;;5081884;28;20275;-61
2023/12/24 10:31:51;;;;;;;1.70;1.60;;;11.80;99.90;;;;;;5080811;28;20188;-61
2023/12/24 10:34:19;;;;;;;4.30;1.50;;;11.80;99.90;;;;;;5086108;28;20641;-61
2023/12/24 10:36:48;;;;;;;2.23;1.67;;;11.80;99.90;;;;;;5081613;28;20273;-61
2023/12/24 10:39:24;;;;;;;2.03;1.77;;;11.80;99.90;;;;;;5083100;28;20223;-61
2023/12/24 10:41:56;;;;;;;2.87;1.97;;;11.90;99.90;;;;;;5080730;28;20219;-61
2023/12/24 10:44:24;;;;;;;4.30;1.73;;;11.90;99.90;;;;;;5080256;28;20219;-61
2023/12/24 10:46:52;;;;;;;4.67;2.03;;;11.90;99.90;;;;;;5078614;28;20202;-62
2023/12/24 10:49:21;;;;;;;2.70;1.60;;;11.90;99.90;;;;;;5083260;28;20231;-61
2023/12/24 10:51:49;;;;;;;1.70;1.60;;;12.00;99.90;;;;;;5085605;28;20219;-61
2023/12/24 10:54:19;;;;;;;1.90;1.63;;;12.00;99.90;;;;;;5082557;28;20354;-61
2023/12/24 10:57:03;;;;;;;1.80;1.60;;;12.00;99.90;;;;;;5083410;28;20215;-61
2023/12/24 11:00:06;;;;;;;3.23;1.60;;;12.00;99.90;;;;;;5082190;28;20233;-60
2023/12/24 11:02:37;;;;;;;8.07;2.00;;;12.00;99.90;;;;;;5080353;28;20579;-61
2023/12/24 11:05:06;;;;;;;4.93;1.80;;;12.00;99.90;;;;;;5084960;28;20308;-61
2023/12/24 11:07:49;;;;;;;3.07;1.80;;;12.00;99.90;;;;;;5082925;28;20204;-61
2023/12/24 11:10:42;;;;;;;3.27;1.70;;;12.10;99.90;;;;;;5083102;28;20316;-61
2023/12/24 11:13:12;;;;;;;3.37;1.90;;;12.10;99.90;;;;;;5082070;28;20595;-61
2023/12/24 11:15:43;;;;;;;4.07;1.80;;;12.10;99.90;;;;;;5080614;28;20288;-61
2023/12/24 11:18:11;;;;;;;6.67;1.93;;;12.20;99.90;;;;;;5087149;28;20744;-60
2023/12/24 11:20:42;;;;;;;3.30;1.80;;;12.20;99.90;;;;;;5082844;28;20424;-60
2023/12/24 11:23:11;;;;;;;2.67;1.90;;;12.20;99.90;;;;;;5085032;28;20218;-60
2023/12/24 11:25:42;;;;;;;3.77;1.70;;;12.20;99.90;;;;;;5082714;28;20195;-61
2023/12/24 11:28:12;;;;;;;2.87;1.63;;;12.30;99.90;;;;;;5081436;28;20219;-61
2023/12/24 11:31:04;;;;;;;2.20;2.00;;;12.30;99.90;;;;;;5084267;28;20211;-61
2023/12/24 11:33:51;;;;;;;3.67;1.57;;;12.30;99.90;;;;;;5081614;28;20265;-61
2023/12/24 11:36:22;;;;;;;2.53;1.70;;;12.30;99.90;;;;;;5081304;28;20261;-60
2023/12/24 11:38:56;;;;;;;2.13;1.60;;;12.30;99.90;;;;;;5079103;28;20216;-61
2023/12/24 11:41:28;;;;;;;3.17;1.70;;;12.40;99.90;;;;;;5081206;27;20214;-61
2023/12/24 11:43:58;;;;;;;1.80;1.60;;;12.40;99.90;;;;;;5084424;28;20193;-57
2023/12/24 11:46:27;;;;;;;3.50;1.50;;;12.40;99.90;;;;;;5084136;28;20195;-60
2023/12/24 11:48:56;;;;;;;2.60;1.83;;;12.40;99.90;;;;;;5083246;28;20230;-61
2023/12/24 11:51:26;;;;;;;3.40;1.50;;;12.40;99.90;;;;;;5084372;28;20233;-61
2023/12/24 11:54:03;;;;;;;6.03;1.40;;;12.40;99.90;;;;;;5083824;28;20222;-60
2023/12/24 11:56:33;;;;;;;2.70;1.63;;;12.50;99.90;;;;;;5081621;28;20219;-60
2023/12/24 11:59:04;;;;;;;6.17;1.50;;;12.50;99.90;;;;;;5082249;28;20612;-60
2023/12/24 12:01:36;;;;;;;1.50;1.40;;;12.50;99.90;;;;;;5082834;28;20183;-60
2023/12/24 12:04:06;;;;;;;1.50;1.40;;;12.50;99.90;;;;;;5083298;28;20215;-60
2023/12/24 12:06:36;;;;;;;1.50;1.40;;;12.60;99.90;;;;;;5083036;28;20727;-60
2023/12/24 12:09:06;;;;;;;2.23;1.60;;;12.60;99.90;;;;;;5081808;28;20231;-60
2023/12/24 12:11:36;;;;;;;3.17;1.40;;;12.60;99.90;;;;;;5078927;28;20238;-60
2023/12/24 12:14:06;;;;;;;1.50;1.40;;;12.60;99.90;;;;;;5079700;28;20666;-60
2023/12/24 12:16:35;;;;;;;2.17;1.40;;;12.60;99.90;;;;;;5080850;28;20846;-60
2023/12/24 12:19:03;;;;;;;2.57;1.57;;;12.70;99.90;;;;;;5080706;28;20226;-60
2023/12/24 12:21:31;;;;;;;1.47;1.27;;;12.70;99.90;;;;;;5073338;28;20710;-60
2023/12/24 12:24:00;;;;;;;1.73;1.63;;;12.70;99.90;;;;;;5079576;28;20309;-60
2023/12/24 12:26:28;;;;;;;1.57;1.30;;;12.70;99.90;;;;;;5078672;28;20694;-60
2023/12/24 12:28:57;;;;;;;1.50;1.40;;;12.70;99.90;;;;;;5080328;28;20200;-61
2023/12/24 12:31:26;;;;;;;1.20;1.20;;;12.70;99.90;;;;;;5075415;28;20234;-60
2023/12/24 12:33:54;;;;;;;1.20;1.20;;;12.70;99.90;;;;;;5079941;27;20211;-60
2023/12/24 12:36:22;;;;;;;1.80;1.10;;;12.80;99.90;;;;;;5080503;28;20222;-60
2023/12/24 12:38:51;;;;;;;1.50;1.10;;;12.90;99.90;;;;;;5081070;28;20510;-60
2023/12/24 12:41:19;;;;;;;2.13;1.00;;;12.90;99.90;;;;;;5079069;28;20220;-60
2023/12/24 12:43:48;;;;;;;2.77;1.23;;;12.90;99.90;;;;;;5078544;28;20191;-60
2023/12/24 12:46:17;;;;;;;1.40;1.30;;;13.00;99.90;;;;;;5080184;28;20227;-60
2023/12/24 12:48:46;;;;;;;1.57;1.20;;;13.00;99.90;;;;;;5080844;28;20221;-60
2023/12/24 12:51:15;;;;;;;2.47;1.57;;;13.00;99.90;;;;;;5080082;28;20697;-60
2023/12/24 12:53:43;;;;;;;1.90;1.20;;;13.00;99.90;;;;;;5080988;28;20581;-60
2023/12/24 12:56:11;;;;;;;1.70;1.60;;;13.10;99.90;;;;;;5076724;28;20299;-60